createdAt,value
2018-03-10T00:00:00.740Z,0.90
2018-03-10T00:02:28.262Z,0.70
2018-03-10T00:04:55.761Z,0.83
2018-03-10T00:07:23.287Z,1.27
2018-03-10T00:09:50.790Z,1.17
2018-03-10T00:12:18.302Z,0.73
2018-03-10T00:14:45.835Z,0.80
2018-03-10T00:17:13.455Z,0.90
2018-03-10T00:19:42.111Z,0.90
2018-03-10T00:22:09.607Z,0.77
2018-03-10T00:24:37.125Z,0.90
2018-03-10T00:27:04.751Z,0.70
2018-03-10T00:29:32.273Z,0.70
2018-03-10T00:31:59.801Z,1.10
2018-03-10T00:34:27.328Z,1.10
2018-03-10T00:36:55.271Z,0.90
2018-03-10T00:39:23.191Z,1.00
2018-03-10T00:41:50.702Z,0.70
2018-03-10T00:44:18.215Z,0.90
2018-03-10T00:46:45.715Z,0.80
2018-03-10T00:49:13.643Z,0.97
2018-03-10T00:51:41.168Z,0.80
2018-03-10T00:54:08.694Z,1.03
2018-03-10T00:56:36.186Z,0.90
2018-03-10T00:59:03.708Z,0.87
2018-03-10T01:01:31.217Z,0.80
2018-03-10T01:03:58.742Z,0.90
2018-03-10T01:06:26.250Z,1.13
2018-03-10T01:08:53.794Z,0.90
2018-03-10T01:11:21.302Z,1.00
2018-03-10T01:13:48.838Z,1.00
2018-03-10T01:16:16.733Z,0.80
2018-03-10T01:18:44.260Z,0.90
2018-03-10T01:21:11.760Z,0.97
2018-03-10T01:23:39.279Z,0.70
2018-03-10T01:26:06.793Z,1.10
2018-03-10T01:28:34.722Z,1.00
2018-03-10T01:31:02.230Z,0.57
2018-03-10T01:33:29.755Z,1.07
2018-03-10T01:35:57.255Z,0.80
2018-03-10T01:38:24.810Z,0.70
2018-03-10T01:40:52.731Z,0.80
2018-03-10T01:43:20.238Z,1.00
2018-03-10T01:45:47.746Z,0.80
2018-03-10T01:48:15.255Z,1.03
2018-03-10T01:50:42.916Z,0.73
2018-03-10T01:53:12.352Z,0.83
2018-03-10T01:55:39.878Z,0.87
2018-03-10T01:58:08.738Z,0.80
2018-03-10T02:00:36.287Z,0.70
2018-03-10T02:03:03.790Z,0.70
2018-03-10T02:05:31.320Z,0.70
2018-03-10T02:07:58.830Z,0.70
2018-03-10T02:10:26.342Z,0.70
2018-03-10T02:12:53.850Z,0.80
2018-03-10T02:15:21.391Z,0.70
2018-03-10T02:17:48.903Z,1.07
2018-03-10T02:20:16.430Z,1.00
2018-03-10T02:22:43.931Z,0.60
2018-03-10T02:25:11.447Z,0.70
2018-03-10T02:27:39.104Z,0.57
2018-03-10T02:30:06.675Z,0.80
2018-03-10T02:32:34.344Z,0.80
2018-03-10T02:35:01.864Z,0.70
2018-03-10T02:37:29.766Z,0.60
2018-03-10T02:39:57.300Z,0.80
2018-03-10T02:42:24.808Z,0.50
2018-03-10T02:44:52.346Z,0.70
2018-03-10T02:47:19.867Z,0.77
2018-03-10T02:49:47.395Z,0.80
2018-03-10T02:52:16.052Z,0.97
2018-03-10T02:54:43.585Z,0.80
2018-03-10T02:57:11.095Z,0.80
2018-03-10T02:59:38.624Z,0.83
2018-03-10T03:02:06.150Z,0.80
2018-03-10T03:04:33.667Z,0.90
2018-03-10T03:07:01.163Z,0.70
2018-03-10T03:09:28.691Z,0.70
2018-03-10T03:11:56.183Z,0.70
2018-03-10T03:14:23.710Z,0.80
2018-03-10T03:16:51.203Z,0.70
2018-03-10T03:19:18.759Z,0.80
2018-03-10T03:21:46.250Z,0.90
2018-03-10T03:24:13.776Z,0.73
2018-03-10T03:26:41.299Z,0.90
2018-03-10T03:29:08.829Z,0.70
2018-03-10T03:31:36.327Z,0.70
2018-03-10T03:34:03.834Z,0.87
2018-03-10T03:36:31.350Z,0.70
2018-03-10T03:38:58.864Z,0.50
2018-03-10T03:41:26.388Z,0.80
2018-03-10T03:43:54.290Z,0.70
2018-03-10T03:46:21.815Z,0.63
2018-03-10T03:48:49.339Z,0.80
2018-03-10T03:51:16.867Z,0.60
2018-03-10T03:53:44.364Z,0.50
2018-03-10T03:56:12.294Z,0.70
2018-03-10T03:58:40.571Z,0.60
2018-03-10T04:01:08.130Z,0.60
2018-03-10T04:03:35.628Z,0.57
2018-03-10T04:06:03.147Z,0.60
2018-03-10T04:08:30.641Z,0.60
2018-03-10T04:10:58.566Z,0.77
2018-03-10T04:13:26.067Z,0.60
2018-03-10T04:15:53.758Z,0.60
2018-03-10T04:18:21.654Z,0.50
2018-03-10T04:20:49.185Z,0.60
2018-03-10T04:23:16.689Z,0.60
2018-03-10T04:25:44.230Z,0.60
2018-03-10T04:28:11.734Z,0.60
2018-03-10T04:30:39.264Z,0.60
2018-03-10T04:33:06.788Z,0.70
2018-03-10T04:35:34.718Z,0.60
2018-03-10T04:38:02.627Z,0.40
2018-03-10T04:40:30.146Z,0.70
2018-03-10T04:42:57.646Z,0.70
2018-03-10T04:45:25.565Z,0.50
2018-03-10T04:47:53.468Z,0.80
2018-03-10T04:50:20.959Z,0.70
2018-03-10T04:52:48.483Z,0.70
2018-03-10T04:55:16.385Z,0.50
2018-03-10T04:57:44.297Z,0.50
2018-03-10T05:00:12.195Z,0.60
2018-03-10T05:02:39.712Z,0.53
2018-03-10T05:05:07.214Z,0.70
2018-03-10T05:07:34.742Z,0.53
2018-03-10T05:10:02.645Z,0.70
2018-03-10T05:12:30.156Z,0.60
2018-03-10T05:14:57.673Z,0.80
2018-03-10T05:17:25.215Z,0.90
2018-03-10T05:19:52.742Z,0.93
2018-03-10T05:22:20.675Z,0.80
2018-03-10T05:24:48.198Z,0.50
2018-03-10T05:27:15.803Z,0.63
2018-03-10T05:29:43.727Z,0.97
2018-03-10T05:32:11.219Z,0.70
2018-03-10T05:34:38.755Z,0.80
2018-03-10T05:37:06.284Z,1.10
2018-03-10T05:39:33.794Z,0.80
2018-03-10T05:42:01.707Z,0.70
2018-03-10T05:44:29.231Z,0.70
2018-03-10T05:46:56.927Z,0.73
2018-03-10T05:49:24.456Z,1.00
2018-03-10T05:51:51.954Z,2.20
2018-03-10T05:54:19.475Z,1.00
2018-03-10T05:56:46.999Z,0.90
2018-03-10T05:59:14.934Z,0.60
2018-03-10T06:01:42.426Z,0.70
2018-03-10T06:04:09.948Z,1.13
2018-03-10T06:06:37.446Z,0.83
2018-03-10T06:09:05.006Z,0.70
2018-03-10T06:11:32.501Z,0.93
2018-03-10T06:14:00.023Z,0.83
2018-03-10T06:16:27.542Z,0.80
2018-03-10T06:18:55.452Z,0.97
2018-03-10T06:21:22.970Z,0.80
2018-03-10T06:23:50.974Z,0.70
2018-03-10T06:26:18.635Z,1.03
2018-03-10T06:28:46.147Z,1.20
2018-03-10T06:31:14.066Z,0.83
2018-03-10T06:33:41.575Z,0.80
2018-03-10T06:36:09.107Z,0.67
2018-03-10T06:38:36.603Z,0.80
2018-03-10T06:41:04.170Z,1.10
2018-03-10T06:43:31.687Z,0.80
2018-03-10T06:45:59.606Z,0.80
2018-03-10T06:48:27.110Z,0.90
2018-03-10T06:50:55.054Z,1.00
2018-03-10T06:53:22.618Z,1.10
2018-03-10T06:55:50.146Z,1.00
2018-03-10T06:58:17.657Z,1.70
2018-03-10T07:00:45.556Z,1.67
2018-03-10T07:03:13.086Z,1.30
2018-03-10T07:05:40.578Z,1.73
2018-03-10T07:08:08.098Z,1.27
2018-03-10T07:10:35.654Z,1.07
2018-03-10T07:13:03.166Z,0.87
2018-03-10T07:15:30.674Z,1.30
2018-03-10T07:17:58.194Z,1.13
2018-03-10T07:20:25.701Z,1.00
2018-03-10T07:22:53.213Z,0.87
2018-03-10T07:25:21.206Z,1.10
2018-03-10T07:27:48.728Z,0.93
2018-03-10T07:30:16.632Z,0.73
2018-03-10T07:32:44.154Z,0.67
2018-03-10T07:35:11.670Z,0.80
2018-03-10T07:37:39.192Z,0.90
2018-03-10T07:40:06.730Z,0.70
2018-03-10T07:42:34.262Z,0.87
2018-03-10T07:45:01.847Z,0.83
2018-03-10T07:47:30.226Z,0.93
2018-03-10T07:49:57.741Z,0.90
2018-03-10T07:52:25.237Z,1.03
2018-03-10T07:54:52.835Z,0.90
2018-03-10T07:57:20.328Z,0.63
2018-03-10T07:59:47.850Z,1.00
2018-03-10T08:02:15.346Z,1.17
2018-03-10T08:04:43.277Z,1.10
2018-03-10T08:07:10.795Z,1.00
2018-03-10T08:09:38.330Z,0.93
2018-03-10T08:12:05.858Z,0.97
2018-03-10T08:14:33.382Z,1.03
2018-03-10T08:17:00.885Z,0.80
2018-03-10T08:19:28.433Z,0.90
2018-03-10T08:21:56.339Z,0.80
2018-03-10T08:24:23.862Z,1.00
2018-03-10T08:26:51.477Z,0.97
2018-03-10T08:29:19.015Z,0.80
2018-03-10T08:31:46.560Z,0.97
2018-03-10T08:34:14.086Z,0.80
2018-03-10T08:36:41.991Z,0.70
2018-03-10T08:39:09.526Z,0.80
2018-03-10T08:41:37.030Z,0.87
2018-03-10T08:44:04.550Z,0.77
2018-03-10T08:46:32.079Z,0.80
2018-03-10T08:48:59.586Z,1.30
2018-03-10T08:51:27.114Z,0.70
2018-03-10T08:53:54.639Z,1.00
2018-03-10T08:56:22.177Z,0.80
2018-03-10T08:58:50.174Z,0.70
2018-03-10T09:01:17.726Z,0.80
2018-03-10T09:03:45.254Z,0.60
2018-03-10T09:06:12.794Z,0.70
2018-03-10T09:08:40.299Z,0.73
2018-03-10T09:11:07.858Z,0.80
2018-03-10T09:13:35.383Z,0.77
2018-03-10T09:16:03.323Z,0.80
2018-03-10T09:18:30.827Z,1.00
2018-03-10T09:20:58.353Z,1.12
2018-03-10T09:23:26.031Z,0.98
2018-03-10T09:25:54.335Z,0.93
2018-03-10T09:28:21.863Z,1.10
2018-03-10T09:30:49.386Z,1.08
2018-03-10T09:33:16.888Z,0.70
2018-03-10T09:35:44.402Z,1.00
2018-03-10T09:38:11.931Z,1.15
2018-03-10T09:40:39.431Z,1.02
2018-03-10T09:43:07.343Z,1.08
2018-03-10T09:45:34.869Z,0.90
2018-03-10T09:48:02.396Z,0.90
2018-03-10T09:50:30.289Z,0.90
2018-03-10T09:52:58.276Z,0.93
2018-03-10T09:55:25.770Z,1.02
2018-03-10T09:57:53.302Z,1.00
2018-03-10T10:00:20.805Z,1.00
2018-03-10T10:02:48.336Z,0.60
2018-03-10T10:05:15.847Z,0.80
2018-03-10T10:07:43.799Z,0.50
2018-03-10T10:10:11.293Z,0.70
2018-03-10T10:12:38.816Z,0.70
2018-03-10T10:15:06.331Z,0.40
2018-03-10T10:17:33.858Z,0.60
2018-03-10T10:20:01.359Z,0.60
2018-03-10T10:22:29.286Z,0.52
2018-03-10T10:24:56.794Z,0.60
2018-03-10T10:27:24.334Z,0.70
2018-03-10T10:29:52.242Z,0.40
2018-03-10T10:32:19.809Z,0.70
2018-03-10T10:34:47.291Z,0.80
2018-03-10T10:37:14.811Z,0.70
2018-03-10T10:39:42.385Z,0.70
2018-03-10T10:42:10.008Z,0.40
2018-03-10T10:44:37.538Z,0.52
2018-03-10T10:47:05.456Z,0.73
2018-03-10T10:49:32.984Z,0.60
2018-03-10T10:52:00.634Z,0.70
2018-03-10T10:54:28.298Z,0.60
2018-03-10T10:56:55.830Z,0.80
2018-03-10T10:59:23.754Z,0.60
2018-03-10T11:01:57.478Z,0.82
2018-03-10T11:04:28.322Z,0.98
2018-03-10T11:06:55.830Z,0.70
2018-03-10T11:09:23.368Z,0.65
2018-03-10T11:11:51.266Z,1.02
2018-03-10T11:14:18.814Z,0.70
2018-03-10T11:16:46.330Z,1.10
2018-03-10T11:19:13.843Z,0.50
2018-03-10T11:21:41.369Z,0.62
2018-03-10T11:24:08.895Z,0.60
2018-03-10T11:26:36.397Z,0.50
2018-03-10T11:29:03.916Z,0.60
2018-03-10T11:31:31.586Z,0.70
2018-03-10T11:33:59.098Z,0.68
2018-03-10T11:36:27.010Z,0.70
2018-03-10T11:38:54.523Z,0.73
2018-03-10T11:41:23.042Z,1.00
2018-03-10T11:43:50.562Z,0.80
2018-03-10T11:46:18.083Z,0.70
2018-03-10T11:48:45.626Z,0.80
2018-03-10T11:51:13.159Z,0.70
2018-03-10T11:53:40.751Z,0.60
2018-03-10T11:56:08.249Z,0.50
2018-03-10T11:58:35.757Z,0.60
2018-03-10T12:01:03.275Z,0.70
2018-03-10T12:03:30.922Z,0.70
2018-03-10T12:05:58.459Z,0.80
2018-03-10T12:08:26.471Z,0.73
2018-03-10T12:10:53.994Z,0.65
2018-03-10T12:13:21.570Z,1.10
2018-03-10T12:15:49.206Z,0.60
2018-03-10T12:18:16.737Z,0.62
2018-03-10T12:20:44.646Z,0.70
2018-03-10T12:23:12.175Z,0.62
2018-03-10T12:25:39.851Z,0.52
2018-03-10T12:28:07.377Z,0.50
2018-03-10T12:30:35.271Z,0.45
2018-03-10T12:33:02.888Z,0.70
2018-03-10T12:35:30.394Z,0.47
2018-03-10T12:37:57.955Z,0.60
2018-03-10T12:40:25.465Z,0.68
2018-03-10T12:42:53.390Z,0.50
2018-03-10T12:45:20.899Z,0.52
2018-03-10T12:47:48.458Z,0.60
2018-03-10T12:50:16.362Z,0.50
2018-03-10T12:52:43.884Z,0.45
2018-03-10T12:55:11.551Z,0.50
2018-03-10T12:57:39.082Z,0.50
2018-03-10T13:00:06.976Z,0.50
2018-03-10T13:02:34.532Z,0.65
2018-03-10T13:05:02.059Z,0.80
2018-03-10T13:07:29.956Z,0.70
2018-03-10T13:09:57.477Z,0.70
2018-03-10T13:12:25.007Z,0.70
2018-03-10T13:14:52.534Z,0.60
2018-03-10T13:17:20.054Z,0.65
2018-03-10T13:19:47.606Z,0.62
2018-03-10T13:22:15.536Z,0.80
2018-03-10T13:28:05.470Z,0.80
2018-03-10T13:30:33.423Z,0.98
2018-03-10T13:33:01.354Z,0.60
2018-03-10T13:35:28.909Z,0.85
2018-03-10T13:37:56.423Z,0.77
2018-03-10T13:40:24.352Z,0.80
2018-03-10T13:42:51.883Z,0.88
2018-03-10T13:45:19.456Z,0.70
2018-03-10T13:47:46.983Z,0.60
2018-03-10T13:50:14.522Z,0.65
2018-03-10T13:52:42.463Z,0.52
2018-03-10T13:55:09.983Z,0.60
2018-03-10T13:57:37.521Z,0.60
2018-03-10T14:00:05.050Z,0.50
2018-03-10T14:02:44.925Z,0.65
2018-03-10T14:05:12.484Z,0.62
2018-03-10T14:07:40.017Z,0.40
2018-03-10T14:10:08.016Z,0.50
2018-03-10T14:12:35.548Z,0.70
2018-03-10T14:15:03.476Z,0.55
2018-03-10T14:17:31.027Z,0.62
2018-03-10T14:19:58.575Z,0.60
2018-03-10T14:22:26.231Z,0.50
2018-03-10T14:24:53.748Z,0.95
2018-03-10T14:27:21.683Z,0.60
2018-03-10T14:29:49.220Z,0.52
2018-03-10T14:32:16.772Z,0.88
2018-03-10T14:34:44.288Z,0.40
2018-03-10T14:37:11.843Z,0.50
2018-03-10T14:39:39.359Z,0.68
2018-03-10T14:42:06.907Z,0.47
2018-03-10T14:44:34.434Z,0.60
2018-03-10T14:47:02.335Z,0.57
2018-03-10T14:49:29.857Z,0.60
2018-03-10T14:51:57.773Z,0.60
2018-03-10T14:54:25.328Z,0.55
2018-03-10T14:56:52.872Z,0.70
2018-03-10T14:59:20.410Z,0.50
2018-03-10T15:01:48.323Z,0.65
2018-03-10T15:04:16.836Z,0.80
2018-03-10T15:06:44.771Z,0.60
2018-03-10T15:09:12.332Z,0.73
2018-03-10T15:11:39.844Z,0.62
2018-03-10T15:14:07.398Z,0.60
2018-03-10T15:16:35.307Z,0.47
2018-03-10T15:19:02.830Z,0.50
2018-03-10T15:21:30.345Z,0.50
2018-03-10T15:23:57.883Z,0.77
2018-03-10T15:26:25.402Z,0.40
2018-03-10T15:28:52.931Z,0.60
2018-03-10T15:31:20.464Z,0.52
2018-03-10T15:33:47.988Z,0.62
2018-03-10T15:36:15.540Z,0.40
2018-03-10T15:38:43.499Z,0.50
2018-03-10T15:41:19.530Z,0.50
2018-03-10T15:43:47.079Z,0.60
2018-03-10T15:46:14.629Z,0.65
2018-03-10T15:48:42.196Z,0.50
2018-03-10T15:51:09.738Z,0.57
2018-03-10T15:53:37.406Z,0.70
2018-03-10T15:56:04.955Z,0.80
2018-03-10T15:58:32.478Z,0.70
2018-03-10T16:01:00.358Z,1.10
2018-03-10T16:03:27.879Z,0.95
2018-03-10T16:05:55.810Z,0.80
2018-03-10T16:08:23.334Z,1.40
2018-03-10T16:10:50.835Z,0.70
2018-03-10T16:13:18.371Z,1.15
2018-03-10T16:15:45.894Z,1.30
2018-03-10T16:18:13.422Z,1.15
2018-03-10T16:20:41.391Z,0.98
2018-03-10T16:23:08.935Z,1.30
2018-03-10T16:25:36.596Z,1.80
2018-03-10T16:28:04.236Z,1.17
2018-03-10T16:30:31.752Z,1.70
2018-03-10T16:32:59.721Z,1.10
2018-03-10T16:35:27.636Z,2.00
2018-03-10T16:37:55.195Z,1.58
2018-03-10T16:40:22.754Z,1.50
2018-03-10T16:42:50.315Z,1.92
2018-03-10T16:45:17.828Z,1.33
2018-03-10T16:47:45.335Z,1.65
2018-03-10T16:50:12.892Z,1.50
2018-03-10T16:52:40.421Z,1.55
2018-03-10T16:55:07.947Z,1.60
2018-03-10T16:57:35.848Z,1.48
2018-03-10T17:00:03.399Z,1.52
2018-03-10T17:02:30.923Z,1.48
2018-03-10T17:04:58.863Z,1.70
2018-03-10T17:07:26.452Z,2.00
2018-03-10T17:09:54.387Z,2.00
2018-03-10T17:12:21.899Z,2.20
2018-03-10T17:14:49.435Z,1.90
2018-03-10T17:17:17.346Z,2.13
2018-03-10T17:19:44.903Z,2.30
2018-03-10T17:22:12.431Z,2.10
2018-03-10T17:24:40.369Z,1.62
2018-03-10T17:27:07.891Z,1.90
2018-03-10T17:29:35.436Z,1.60
2018-03-10T17:32:02.975Z,1.83
2018-03-10T17:34:30.539Z,2.10
2018-03-10T17:36:58.060Z,2.28
2018-03-10T17:39:25.583Z,2.10
2018-03-10T17:41:53.114Z,2.00
2018-03-10T17:44:20.640Z,2.17
2018-03-10T17:46:48.171Z,1.80
2018-03-10T17:49:15.693Z,1.83
2018-03-10T17:51:43.236Z,1.97
2018-03-10T17:54:11.172Z,2.40
2018-03-10T17:56:38.734Z,1.73
2018-03-10T17:59:06.273Z,1.65
2018-03-10T18:01:33.820Z,1.30
2018-03-10T18:04:01.364Z,1.20
2018-03-10T18:06:28.917Z,1.40
2018-03-10T18:08:56.438Z,1.00
2018-03-10T18:11:24.445Z,1.00
2018-03-10T18:13:51.998Z,1.33
2018-03-10T18:16:19.561Z,1.10
2018-03-10T18:18:47.162Z,1.30
2018-03-10T18:21:14.699Z,1.60
2018-03-10T18:23:42.249Z,1.60
2018-03-10T18:26:09.771Z,1.40
2018-03-10T18:28:37.711Z,1.45
2018-03-10T18:31:05.228Z,1.20
2018-03-10T18:33:32.775Z,1.07
2018-03-10T18:36:00.286Z,1.13
2018-03-10T18:38:27.821Z,1.33
2018-03-10T18:40:55.335Z,1.73
2018-03-10T18:43:23.295Z,6.07
2018-03-10T18:45:51.208Z,1.17
2018-03-10T18:48:18.800Z,1.67
2018-03-10T18:50:46.326Z,2.73
2018-03-10T18:53:13.884Z,1.83
2018-03-10T18:55:41.492Z,2.50
2018-03-10T18:58:09.090Z,2.80
2018-03-10T19:00:36.649Z,2.63
2018-03-10T19:03:04.207Z,2.43
2018-03-10T19:05:31.740Z,2.17
2018-03-10T19:07:59.304Z,2.20
2018-03-10T19:10:26.843Z,1.73
2018-03-10T19:12:54.839Z,1.80
2018-03-10T19:15:22.379Z,1.83
2018-03-10T19:17:49.932Z,2.83
2018-03-10T19:20:17.833Z,3.33
2018-03-10T19:22:45.361Z,3.30
2018-03-10T19:25:12.915Z,2.83
2018-03-10T19:27:40.850Z,2.57
2018-03-10T19:30:08.419Z,2.90
2018-03-10T19:32:35.927Z,2.43
2018-03-10T19:35:03.498Z,1.93
2018-03-10T19:37:31.027Z,2.20
2018-03-10T19:39:58.980Z,2.13
2018-03-10T19:42:26.905Z,1.87
2018-03-10T19:44:54.429Z,2.17
2018-03-10T19:47:21.952Z,2.17
2018-03-10T19:49:49.500Z,2.43
2018-03-10T19:52:17.104Z,2.20
2018-03-10T19:54:44.859Z,1.97
2018-03-10T19:57:12.424Z,1.90
2018-03-10T19:59:40.847Z,1.70
2018-03-10T20:02:08.496Z,1.70
2018-03-10T20:04:36.059Z,1.70
2018-03-10T20:07:03.651Z,1.80
2018-03-10T20:09:31.180Z,1.87
2018-03-10T20:11:59.036Z,1.30
2018-03-10T20:14:26.535Z,1.30
2018-03-10T20:16:54.080Z,1.20
2018-03-10T20:19:21.589Z,1.20
2018-03-10T20:21:49.123Z,1.50
2018-03-10T20:24:17.040Z,1.60
2018-03-10T20:26:44.570Z,1.90
2018-03-10T20:29:12.198Z,1.57
2018-03-10T20:31:40.384Z,1.70
2018-03-10T20:34:08.144Z,1.73
2018-03-10T20:36:36.066Z,1.73
2018-03-10T20:39:03.587Z,1.47
2018-03-10T20:41:31.114Z,1.40
2018-03-10T20:43:58.617Z,1.47
2018-03-10T20:46:26.191Z,1.67
2018-03-10T20:48:53.713Z,1.73
2018-03-10T20:51:21.644Z,1.30
2018-03-10T20:53:49.163Z,1.60
2018-03-10T20:56:16.688Z,1.30
2018-03-10T20:58:44.604Z,1.40
2018-03-10T21:01:12.153Z,1.47
2018-03-10T21:03:39.672Z,1.73
2018-03-10T21:06:07.673Z,1.40
2018-03-10T21:08:35.235Z,2.20
2018-03-10T21:11:02.745Z,1.73
2018-03-10T21:13:30.667Z,1.63
2018-03-10T21:15:58.450Z,1.90
2018-03-10T21:18:26.395Z,1.97
2018-03-10T21:20:53.910Z,2.43
2018-03-10T21:23:21.826Z,1.77
2018-03-10T21:25:49.351Z,1.90
2018-03-10T21:28:16.971Z,1.50
2018-03-10T21:30:44.445Z,1.33
2018-03-10T21:33:12.381Z,1.70
2018-03-10T21:35:39.906Z,1.83
2018-03-10T21:38:07.448Z,1.57
2018-03-10T21:40:35.364Z,1.10
2018-03-10T21:43:02.918Z,1.60
2018-03-10T21:45:30.432Z,1.23
2018-03-10T21:47:57.975Z,1.57
2018-03-10T21:50:25.915Z,1.77
2018-03-10T21:52:53.476Z,1.93
2018-03-10T21:55:21.053Z,1.77
2018-03-10T21:57:48.641Z,1.63
2018-03-10T22:00:16.186Z,1.80
2018-03-10T22:02:44.101Z,1.77
2018-03-10T22:05:11.661Z,1.23
2018-03-10T22:07:39.222Z,1.40
2018-03-10T22:10:06.787Z,1.40
2018-03-10T22:12:34.320Z,1.17
2018-03-10T22:15:01.858Z,1.20
2018-03-10T22:17:29.387Z,1.37
2018-03-10T22:19:56.931Z,1.03
2018-03-10T22:22:24.444Z,1.10
2018-03-10T22:24:52.002Z,1.13
2018-03-10T22:27:19.588Z,1.27
2018-03-10T22:29:47.463Z,1.30
2018-03-10T22:32:15.040Z,1.40
2018-03-10T22:34:42.968Z,1.20
2018-03-10T22:37:10.535Z,1.03
2018-03-10T22:39:38.064Z,1.07
2018-03-10T22:42:05.603Z,1.13
2018-03-10T22:44:33.548Z,1.13
2018-03-10T22:47:01.116Z,0.97
2018-03-10T22:49:29.033Z,0.97
2018-03-10T22:51:56.560Z,1.07
2018-03-10T22:54:24.467Z,1.17
2018-03-10T22:56:52.027Z,1.30
2018-03-10T22:59:19.558Z,1.37
2018-03-10T23:01:47.105Z,1.10
2018-03-10T23:04:14.648Z,1.13
2018-03-10T23:06:42.581Z,1.10
2018-03-10T23:09:10.113Z,1.00
2018-03-10T23:11:37.670Z,0.93
2018-03-10T23:14:05.208Z,0.93
2018-03-10T23:16:32.736Z,0.90
2018-03-10T23:19:00.269Z,0.90
2018-03-10T23:21:27.783Z,1.00
2018-03-10T23:23:55.328Z,1.07
2018-03-10T23:26:23.235Z,1.00
2018-03-10T23:28:50.788Z,1.30
2018-03-10T23:31:18.308Z,1.00
2018-03-10T23:33:46.222Z,1.10
2018-03-10T23:36:13.764Z,0.87
2018-03-10T23:38:41.287Z,0.90
2018-03-10T23:41:09.208Z,0.70
2018-03-10T23:43:36.721Z,0.67
2018-03-10T23:46:04.668Z,0.73
2018-03-10T23:48:32.181Z,0.60
2018-03-10T23:50:59.715Z,0.80
2018-03-10T23:53:27.240Z,0.50
2018-03-10T23:55:54.784Z,0.70
2018-03-10T23:58:22.295Z,0.63
